sensor_id;sensor_type;location;lat;lon;timestamp;P1;durP1;ratioP1;P2;durP2;ratioP2
69161;SDS011;56269;51.738;21.652;2023-05-16T00:01:00;23.48;;;12.05;;
69161;SDS011;56269;51.738;21.652;2023-05-16T00:03:27;21.80;;;12.65;;
69161;SDS011;56269;51.738;21.652;2023-05-16T00:05:54;23.67;;;12.63;;
69161;SDS011;56269;51.738;21.652;2023-05-16T00:08:21;20.83;;;12.13;;
69161;SDS011;56269;51.738;21.652;2023-05-16T00:10:47;22.30;;;12.48;;
69161;SDS011;56269;51.738;21.652;2023-05-16T00:13:13;22.23;;;11.55;;
69161;SDS011;56269;51.738;21.652;2023-05-16T00:15:39;22.77;;;12.13;;
69161;SDS011;56269;51.738;21.652;2023-05-16T00:18:08;21.10;;;11.40;;
69161;SDS011;56269;51.738;21.652;2023-05-16T00:20:34;21.48;;;11.23;;
69161;SDS011;56269;51.738;21.652;2023-05-16T00:23:01;20.08;;;11.50;;
69161;SDS011;56269;51.738;21.652;2023-05-16T00:25:27;23.52;;;11.38;;
69161;SDS011;56269;51.738;21.652;2023-05-16T00:27:53;20.87;;;11.50;;
69161;SDS011;56269;51.738;21.652;2023-05-16T00:30:19;18.10;;;10.90;;
69161;SDS011;56269;51.738;21.652;2023-05-16T00:32:46;19.38;;;11.35;;
69161;SDS011;56269;51.738;21.652;2023-05-16T00:35:11;18.67;;;10.77;;
69161;SDS011;56269;51.738;21.652;2023-05-16T00:37:38;19.10;;;10.50;;
69161;SDS011;56269;51.738;21.652;2023-05-16T00:40:04;18.10;;;10.68;;
69161;SDS011;56269;51.738;21.652;2023-05-16T00:42:31;19.85;;;11.38;;
69161;SDS011;56269;51.738;21.652;2023-05-16T00:44:57;21.08;;;11.52;;
69161;SDS011;56269;51.738;21.652;2023-05-16T00:47:24;20.25;;;11.45;;
69161;SDS011;56269;51.738;21.652;2023-05-16T00:49:50;21.57;;;11.40;;
69161;SDS011;56269;51.738;21.652;2023-05-16T00:52:16;21.63;;;11.38;;
69161;SDS011;56269;51.738;21.652;2023-05-16T00:54:42;22.00;;;11.52;;
69161;SDS011;56269;51.738;21.652;2023-05-16T00:57:08;21.33;;;11.00;;
69161;SDS011;56269;51.738;21.652;2023-05-16T00:59:35;21.20;;;11.32;;
69161;SDS011;56269;51.738;21.652;2023-05-16T01:02:01;18.93;;;10.37;;
69161;SDS011;56269;51.738;21.652;2023-05-16T01:04:27;19.50;;;10.88;;
69161;SDS011;56269;51.738;21.652;2023-05-16T01:06:55;18.85;;;10.32;;
69161;SDS011;56269;51.738;21.652;2023-05-16T01:09:21;20.70;;;10.63;;
69161;SDS011;56269;51.738;21.652;2023-05-16T01:20:27;19.65;;;10.93;;
69161;SDS011;56269;51.738;21.652;2023-05-16T01:23:18;20.52;;;10.20;;
69161;SDS011;56269;51.738;21.652;2023-05-16T01:26:24;19.20;;;10.05;;
69161;SDS011;56269;51.738;21.652;2023-05-16T01:28:53;19.43;;;10.30;;
69161;SDS011;56269;51.738;21.652;2023-05-16T01:31:20;20.17;;;10.40;;
69161;SDS011;56269;51.738;21.652;2023-05-16T01:33:47;22.00;;;11.20;;
69161;SDS011;56269;51.738;21.652;2023-05-16T01:36:24;22.15;;;10.02;;
69161;SDS011;56269;51.738;21.652;2023-05-16T01:41:46;19.60;;;10.03;;
69161;SDS011;56269;51.738;21.652;2023-05-16T01:44:35;19.13;;;10.10;;
69161;SDS011;56269;51.738;21.652;2023-05-16T01:47:08;20.58;;;10.27;;
69161;SDS011;56269;51.738;21.652;2023-05-16T01:58:04;19.85;;;10.43;;
69161;SDS011;56269;51.738;21.652;2023-05-16T02:00:33;20.75;;;11.02;;
69161;SDS011;56269;51.738;21.652;2023-05-16T02:02:59;19.30;;;9.82;;
69161;SDS011;56269;51.738;21.652;2023-05-16T02:05:25;19.63;;;10.32;;
69161;SDS011;56269;51.738;21.652;2023-05-16T02:07:51;18.20;;;9.63;;
69161;SDS011;56269;51.738;21.652;2023-05-16T02:10:18;19.25;;;9.75;;
69161;SDS011;56269;51.738;21.652;2023-05-16T02:12:44;18.70;;;9.82;;
69161;SDS011;56269;51.738;21.652;2023-05-16T02:15:11;19.08;;;9.90;;
69161;SDS011;56269;51.738;21.652;2023-05-16T02:17:38;18.40;;;9.80;;
69161;SDS011;56269;51.738;21.652;2023-05-16T02:20:05;16.87;;;9.27;;
69161;SDS011;56269;51.738;21.652;2023-05-16T02:22:35;18.05;;;9.55;;
69161;SDS011;56269;51.738;21.652;2023-05-16T02:25:09;19.63;;;9.90;;
69161;SDS011;56269;51.738;21.652;2023-05-16T02:27:35;16.08;;;9.05;;
69161;SDS011;56269;51.738;21.652;2023-05-16T02:30:02;16.77;;;9.68;;
69161;SDS011;56269;51.738;21.652;2023-05-16T02:32:30;16.13;;;8.93;;
69161;SDS011;56269;51.738;21.652;2023-05-16T02:34:57;18.17;;;9.18;;
69161;SDS011;56269;51.738;21.652;2023-05-16T02:37:23;18.17;;;9.65;;
69161;SDS011;56269;51.738;21.652;2023-05-16T02:39:49;16.80;;;8.93;;
69161;SDS011;56269;51.738;21.652;2023-05-16T02:42:15;16.33;;;9.47;;
69161;SDS011;56269;51.738;21.652;2023-05-16T02:44:42;15.93;;;9.03;;
69161;SDS011;56269;51.738;21.652;2023-05-16T02:47:08;17.45;;;9.50;;
69161;SDS011;56269;51.738;21.652;2023-05-16T02:49:34;16.90;;;8.68;;
69161;SDS011;56269;51.738;21.652;2023-05-16T02:52:00;18.60;;;9.18;;
69161;SDS011;56269;51.738;21.652;2023-05-16T02:54:26;17.83;;;9.10;;
69161;SDS011;56269;51.738;21.652;2023-05-16T02:56:52;17.33;;;8.98;;
69161;SDS011;56269;51.738;21.652;2023-05-16T02:59:19;16.98;;;8.85;;
69161;SDS011;56269;51.738;21.652;2023-05-16T03:01:45;17.25;;;9.02;;
69161;SDS011;56269;51.738;21.652;2023-05-16T03:04:11;19.87;;;8.93;;
69161;SDS011;56269;51.738;21.652;2023-05-16T03:06:37;16.30;;;8.60;;
69161;SDS011;56269;51.738;21.652;2023-05-16T03:09:03;17.73;;;9.13;;
69161;SDS011;56269;51.738;21.652;2023-05-16T03:11:29;16.23;;;8.32;;
69161;SDS011;56269;51.738;21.652;2023-05-16T03:13:55;17.95;;;9.10;;
69161;SDS011;56269;51.738;21.652;2023-05-16T03:16:23;16.07;;;9.07;;
69161;SDS011;56269;51.738;21.652;2023-05-16T03:18:50;15.48;;;8.50;;
69161;SDS011;56269;51.738;21.652;2023-05-16T03:21:16;16.23;;;9.07;;
69161;SDS011;56269;51.738;21.652;2023-05-16T03:23:42;17.35;;;9.07;;
69161;SDS011;56269;51.738;21.652;2023-05-16T03:26:08;15.98;;;8.55;;
69161;SDS011;56269;51.738;21.652;2023-05-16T03:28:35;15.23;;;8.30;;
69161;SDS011;56269;51.738;21.652;2023-05-16T03:31:01;16.20;;;8.35;;
69161;SDS011;56269;51.738;21.652;2023-05-16T03:33:28;14.45;;;8.00;;
69161;SDS011;56269;51.738;21.652;2023-05-16T03:35:54;15.98;;;8.38;;
69161;SDS011;56269;51.738;21.652;2023-05-16T03:38:20;15.88;;;8.18;;
69161;SDS011;56269;51.738;21.652;2023-05-16T03:40:46;14.10;;;8.23;;
69161;SDS011;56269;51.738;21.652;2023-05-16T03:43:13;15.98;;;8.07;;
69161;SDS011;56269;51.738;21.652;2023-05-16T03:45:39;16.80;;;8.90;;
69161;SDS011;56269;51.738;21.652;2023-05-16T03:48:05;15.20;;;7.93;;
69161;SDS011;56269;51.738;21.652;2023-05-16T03:50:33;15.77;;;8.50;;
69161;SDS011;56269;51.738;21.652;2023-05-16T03:52:59;14.13;;;7.33;;
69161;SDS011;56269;51.738;21.652;2023-05-16T03:55:25;13.88;;;7.88;;
69161;SDS011;56269;51.738;21.652;2023-05-16T03:57:51;14.15;;;7.78;;
69161;SDS011;56269;51.738;21.652;2023-05-16T04:00:17;13.98;;;7.60;;
69161;SDS011;56269;51.738;21.652;2023-05-16T04:02:44;13.98;;;7.72;;
69161;SDS011;56269;51.738;21.652;2023-05-16T04:05:10;13.00;;;6.93;;
69161;SDS011;56269;51.738;21.652;2023-05-16T04:07:37;16.48;;;7.85;;
69161;SDS011;56269;51.738;21.652;2023-05-16T04:10:03;15.27;;;7.68;;
69161;SDS011;56269;51.738;21.652;2023-05-16T04:12:30;14.30;;;7.97;;
69161;SDS011;56269;51.738;21.652;2023-05-16T04:14:57;13.77;;;7.30;;
69161;SDS011;56269;51.738;21.652;2023-05-16T04:17:23;12.33;;;6.73;;
69161;SDS011;56269;51.738;21.652;2023-05-16T04:19:50;12.13;;;6.90;;
69161;SDS011;56269;51.738;21.652;2023-05-16T04:22:17;12.38;;;6.38;;
69161;SDS011;56269;51.738;21.652;2023-05-16T04:24:43;12.25;;;6.85;;
69161;SDS011;56269;51.738;21.652;2023-05-16T04:27:09;12.35;;;6.70;;
69161;SDS011;56269;51.738;21.652;2023-05-16T04:29:35;12.00;;;6.63;;
69161;SDS011;56269;51.738;21.652;2023-05-16T04:32:01;12.98;;;7.35;;
69161;SDS011;56269;51.738;21.652;2023-05-16T04:34:30;11.20;;;6.30;;
69161;SDS011;56269;51.738;21.652;2023-05-16T04:36:58;10.48;;;5.55;;
69161;SDS011;56269;51.738;21.652;2023-05-16T04:39:24;11.52;;;6.38;;
69161;SDS011;56269;51.738;21.652;2023-05-16T04:41:54;10.93;;;5.90;;
69161;SDS011;56269;51.738;21.652;2023-05-16T04:44:24;12.45;;;6.20;;
69161;SDS011;56269;51.738;21.652;2023-05-16T04:46:51;10.02;;;5.70;;
69161;SDS011;56269;51.738;21.652;2023-05-16T04:49:20;11.50;;;6.07;;
69161;SDS011;56269;51.738;21.652;2023-05-16T04:51:47;11.13;;;5.32;;
69161;SDS011;56269;51.738;21.652;2023-05-16T04:54:16;11.20;;;5.93;;
69161;SDS011;56269;51.738;21.652;2023-05-16T04:56:42;10.50;;;5.60;;
69161;SDS011;56269;51.738;21.652;2023-05-16T04:59:08;10.57;;;5.63;;
69161;SDS011;56269;51.738;21.652;2023-05-16T05:01:34;11.60;;;6.03;;
69161;SDS011;56269;51.738;21.652;2023-05-16T05:04:01;10.43;;;5.97;;
69161;SDS011;56269;51.738;21.652;2023-05-16T05:06:27;10.20;;;5.73;;
69161;SDS011;56269;51.738;21.652;2023-05-16T05:08:53;11.10;;;5.88;;
69161;SDS011;56269;51.738;21.652;2023-05-16T05:11:20;10.98;;;6.10;;
69161;SDS011;56269;51.738;21.652;2023-05-16T05:13:48;11.18;;;6.10;;
69161;SDS011;56269;51.738;21.652;2023-05-16T05:16:14;11.38;;;6.18;;
69161;SDS011;56269;51.738;21.652;2023-05-16T05:18:40;10.60;;;5.40;;
69161;SDS011;56269;51.738;21.652;2023-05-16T05:21:07;10.05;;;6.00;;
69161;SDS011;56269;51.738;21.652;2023-05-16T05:23:33;10.88;;;5.72;;
69161;SDS011;56269;51.738;21.652;2023-05-16T05:25:59;9.85;;;5.63;;
69161;SDS011;56269;51.738;21.652;2023-05-16T05:28:26;10.98;;;5.55;;
69161;SDS011;56269;51.738;21.652;2023-05-16T05:30:53;10.27;;;5.50;;
69161;SDS011;56269;51.738;21.652;2023-05-16T05:33:19;9.73;;;5.50;;
69161;SDS011;56269;51.738;21.652;2023-05-16T05:35:50;10.60;;;5.90;;
69161;SDS011;56269;51.738;21.652;2023-05-16T05:38:18;10.10;;;5.85;;
69161;SDS011;56269;51.738;21.652;2023-05-16T05:40:45;10.23;;;5.45;;
69161;SDS011;56269;51.738;21.652;2023-05-16T05:43:14;10.83;;;5.80;;
69161;SDS011;56269;51.738;21.652;2023-05-16T05:45:40;10.90;;;5.63;;
69161;SDS011;56269;51.738;21.652;2023-05-16T05:48:07;9.82;;;5.45;;
69161;SDS011;56269;51.738;21.652;2023-05-16T05:50:35;10.68;;;6.13;;
69161;SDS011;56269;51.738;21.652;2023-05-16T05:53:02;10.10;;;6.28;;
69161;SDS011;56269;51.738;21.652;2023-05-16T05:55:28;10.10;;;5.53;;
69161;SDS011;56269;51.738;21.652;2023-05-16T05:57:54;10.10;;;5.13;;
69161;SDS011;56269;51.738;21.652;2023-05-16T06:00:21;11.20;;;5.85;;
69161;SDS011;56269;51.738;21.652;2023-05-16T06:02:47;10.82;;;5.85;;
69161;SDS011;56269;51.738;21.652;2023-05-16T06:05:13;9.82;;;5.43;;
69161;SDS011;56269;51.738;21.652;2023-05-16T06:07:40;9.67;;;6.13;;
69161;SDS011;56269;51.738;21.652;2023-05-16T06:10:06;9.10;;;4.90;;
69161;SDS011;56269;51.738;21.652;2023-05-16T06:12:33;11.48;;;5.72;;
69161;SDS011;56269;51.738;21.652;2023-05-16T06:14:59;9.02;;;5.50;;
69161;SDS011;56269;51.738;21.652;2023-05-16T06:17:25;11.95;;;6.00;;
69161;SDS011;56269;51.738;21.652;2023-05-16T06:19:51;10.37;;;5.70;;
69161;SDS011;56269;51.738;21.652;2023-05-16T06:22:17;9.35;;;5.40;;
69161;SDS011;56269;51.738;21.652;2023-05-16T06:24:44;9.00;;;4.57;;
69161;SDS011;56269;51.738;21.652;2023-05-16T06:27:12;9.50;;;5.05;;
69161;SDS011;56269;51.738;21.652;2023-05-16T06:29:38;9.82;;;5.55;;
69161;SDS011;56269;51.738;21.652;2023-05-16T06:32:05;8.70;;;5.77;;
69161;SDS011;56269;51.738;21.652;2023-05-16T06:34:31;9.80;;;5.43;;
69161;SDS011;56269;51.738;21.652;2023-05-16T06:36:57;8.35;;;5.20;;
69161;SDS011;56269;51.738;21.652;2023-05-16T06:39:24;10.55;;;4.60;;
69161;SDS011;56269;51.738;21.652;2023-05-16T06:41:50;8.02;;;4.75;;
69161;SDS011;56269;51.738;21.652;2023-05-16T06:44:21;7.77;;;4.20;;
69161;SDS011;56269;51.738;21.652;2023-05-16T06:46:47;9.20;;;4.80;;
69161;SDS011;56269;51.738;21.652;2023-05-16T06:49:14;8.98;;;4.90;;
69161;SDS011;56269;51.738;21.652;2023-05-16T06:51:40;9.45;;;5.25;;
69161;SDS011;56269;51.738;21.652;2023-05-16T06:54:06;7.90;;;4.32;;
69161;SDS011;56269;51.738;21.652;2023-05-16T06:56:32;8.67;;;4.53;;
69161;SDS011;56269;51.738;21.652;2023-05-16T06:58:59;8.07;;;4.88;;
69161;SDS011;56269;51.738;21.652;2023-05-16T07:01:26;7.95;;;4.32;;
69161;SDS011;56269;51.738;21.652;2023-05-16T07:03:52;7.93;;;4.60;;
69161;SDS011;56269;51.738;21.652;2023-05-16T07:06:19;7.72;;;3.92;;
69161;SDS011;56269;51.738;21.652;2023-05-16T07:08:45;9.50;;;4.60;;
69161;SDS011;56269;51.738;21.652;2023-05-16T07:11:12;11.32;;;5.00;;
69161;SDS011;56269;51.738;21.652;2023-05-16T07:13:38;7.40;;;4.47;;
69161;SDS011;56269;51.738;21.652;2023-05-16T07:16:04;9.52;;;4.40;;
69161;SDS011;56269;51.738;21.652;2023-05-16T07:18:32;8.85;;;4.60;;
69161;SDS011;56269;51.738;21.652;2023-05-16T07:20:58;7.37;;;4.50;;
69161;SDS011;56269;51.738;21.652;2023-05-16T07:23:25;9.85;;;5.18;;
69161;SDS011;56269;51.738;21.652;2023-05-16T07:25:51;11.77;;;4.15;;
69161;SDS011;56269;51.738;21.652;2023-05-16T07:28:18;8.23;;;4.72;;
69161;SDS011;56269;51.738;21.652;2023-05-16T07:30:44;7.03;;;3.93;;
69161;SDS011;56269;51.738;21.652;2023-05-16T07:33:11;9.17;;;4.83;;
69161;SDS011;56269;51.738;21.652;2023-05-16T07:35:37;8.07;;;4.63;;
69161;SDS011;56269;51.738;21.652;2023-05-16T07:38:04;8.63;;;5.07;;
69161;SDS011;56269;51.738;21.652;2023-05-16T07:40:30;7.43;;;4.65;;
69161;SDS011;56269;51.738;21.652;2023-05-16T07:42:56;7.67;;;4.23;;
69161;SDS011;56269;51.738;21.652;2023-05-16T07:45:22;8.52;;;4.97;;
69161;SDS011;56269;51.738;21.652;2023-05-16T07:47:49;7.20;;;4.43;;
69161;SDS011;56269;51.738;21.652;2023-05-16T07:50:15;9.40;;;4.75;;
69161;SDS011;56269;51.738;21.652;2023-05-16T07:52:41;9.13;;;5.35;;
69161;SDS011;56269;51.738;21.652;2023-05-16T07:55:07;7.83;;;5.17;;
69161;SDS011;56269;51.738;21.652;2023-05-16T07:57:34;7.50;;;3.90;;
69161;SDS011;56269;51.738;21.652;2023-05-16T08:00:00;9.23;;;5.35;;
69161;SDS011;56269;51.738;21.652;2023-05-16T08:02:27;9.38;;;5.28;;
69161;SDS011;56269;51.738;21.652;2023-05-16T08:04:55;9.07;;;5.20;;
69161;SDS011;56269;51.738;21.652;2023-05-16T08:07:24;9.10;;;4.90;;
69161;SDS011;56269;51.738;21.652;2023-05-16T08:09:50;7.63;;;4.90;;
69161;SDS011;56269;51.738;21.652;2023-05-16T08:12:16;8.48;;;4.63;;
69161;SDS011;56269;51.738;21.652;2023-05-16T08:14:42;9.63;;;4.80;;
69161;SDS011;56269;51.738;21.652;2023-05-16T08:17:09;11.70;;;7.53;;
69161;SDS011;56269;51.738;21.652;2023-05-16T08:19:35;9.23;;;5.60;;
69161;SDS011;56269;51.738;21.652;2023-05-16T08:22:01;8.63;;;5.20;;
69161;SDS011;56269;51.738;21.652;2023-05-16T08:24:28;8.35;;;5.00;;
69161;SDS011;56269;51.738;21.652;2023-05-16T08:26:54;6.55;;;3.45;;
69161;SDS011;56269;51.738;21.652;2023-05-16T08:29:20;6.63;;;2.90;;
69161;SDS011;56269;51.738;21.652;2023-05-16T08:31:47;7.40;;;3.42;;
69161;SDS011;56269;51.738;21.652;2023-05-16T08:34:13;9.00;;;5.03;;
69161;SDS011;56269;51.738;21.652;2023-05-16T08:36:39;8.65;;;5.20;;
69161;SDS011;56269;51.738;21.652;2023-05-16T08:39:06;8.50;;;5.00;;
69161;SDS011;56269;51.738;21.652;2023-05-16T08:41:32;7.70;;;3.97;;
69161;SDS011;56269;51.738;21.652;2023-05-16T08:43:58;7.82;;;4.30;;
69161;SDS011;56269;51.738;21.652;2023-05-16T08:46:24;8.65;;;4.97;;
69161;SDS011;56269;51.738;21.652;2023-05-16T08:48:55;6.40;;;3.25;;
69161;SDS011;56269;51.738;21.652;2023-05-16T08:51:24;7.75;;;3.58;;
69161;SDS011;56269;51.738;21.652;2023-05-16T08:54:02;6.57;;;3.03;;
69161;SDS011;56269;51.738;21.652;2023-05-16T08:56:31;9.85;;;4.15;;
69161;SDS011;56269;51.738;21.652;2023-05-16T08:58:58;6.60;;;3.58;;
69161;SDS011;56269;51.738;21.652;2023-05-16T09:01:25;8.73;;;4.72;;
69161;SDS011;56269;51.738;21.652;2023-05-16T09:03:52;8.30;;;4.30;;
69161;SDS011;56269;51.738;21.652;2023-05-16T09:06:20;8.73;;;4.20;;
69161;SDS011;56269;51.738;21.652;2023-05-16T09:08:46;7.95;;;5.07;;
69161;SDS011;56269;51.738;21.652;2023-05-16T09:11:13;7.65;;;4.30;;
69161;SDS011;56269;51.738;21.652;2023-05-16T09:13:39;8.35;;;4.40;;
69161;SDS011;56269;51.738;21.652;2023-05-16T09:16:09;8.10;;;2.47;;
69161;SDS011;56269;51.738;21.652;2023-05-16T09:18:37;7.33;;;3.67;;
69161;SDS011;56269;51.738;21.652;2023-05-16T09:21:05;6.68;;;4.03;;
69161;SDS011;56269;51.738;21.652;2023-05-16T09:23:34;6.10;;;3.33;;
69161;SDS011;56269;51.738;21.652;2023-05-16T09:26:01;5.90;;;2.65;;
69161;SDS011;56269;51.738;21.652;2023-05-16T09:28:29;6.45;;;4.05;;
69161;SDS011;56269;51.738;21.652;2023-05-16T09:30:55;7.73;;;3.83;;
69161;SDS011;56269;51.738;21.652;2023-05-16T09:33:27;7.50;;;3.95;;
69161;SDS011;56269;51.738;21.652;2023-05-16T09:35:55;6.35;;;3.42;;
69161;SDS011;56269;51.738;21.652;2023-05-16T09:38:23;7.68;;;2.65;;
69161;SDS011;56269;51.738;21.652;2023-05-16T09:40:50;7.05;;;3.78;;
69161;SDS011;56269;51.738;21.652;2023-05-16T09:43:16;5.07;;;2.50;;
69161;SDS011;56269;51.738;21.652;2023-05-16T09:45:46;7.15;;;3.97;;
69161;SDS011;56269;51.738;21.652;2023-05-16T09:48:13;5.72;;;2.88;;
69161;SDS011;56269;51.738;21.652;2023-05-16T09:50:45;6.40;;;3.78;;
69161;SDS011;56269;51.738;21.652;2023-05-16T09:53:28;6.97;;;3.80;;
69161;SDS011;56269;51.738;21.652;2023-05-16T09:56:02;6.73;;;3.27;;
69161;SDS011;56269;51.738;21.652;2023-05-16T09:58:35;7.05;;;3.60;;
69161;SDS011;56269;51.738;21.652;2023-05-16T10:01:05;6.65;;;3.47;;
69161;SDS011;56269;51.738;21.652;2023-05-16T10:03:33;6.25;;;3.50;;
69161;SDS011;56269;51.738;21.652;2023-05-16T10:06:01;7.45;;;4.05;;
69161;SDS011;56269;51.738;21.652;2023-05-16T10:08:29;6.53;;;3.70;;
69161;SDS011;56269;51.738;21.652;2023-05-16T10:10:57;7.15;;;3.90;;
69161;SDS011;56269;51.738;21.652;2023-05-16T10:13:27;6.05;;;3.00;;
69161;SDS011;56269;51.738;21.652;2023-05-16T10:15:55;7.15;;;3.92;;
69161;SDS011;56269;51.738;21.652;2023-05-16T10:18:30;8.27;;;4.10;;
69161;SDS011;56269;51.738;21.652;2023-05-16T10:21:01;7.17;;;3.50;;
69161;SDS011;56269;51.738;21.652;2023-05-16T10:23:30;8.00;;;3.70;;
69161;SDS011;56269;51.738;21.652;2023-05-16T10:25:59;7.00;;;4.00;;
69161;SDS011;56269;51.738;21.652;2023-05-16T10:28:28;6.50;;;3.80;;
69161;SDS011;56269;51.738;21.652;2023-05-16T10:30:55;7.10;;;3.28;;
69161;SDS011;56269;51.738;21.652;2023-05-16T10:33:21;6.30;;;3.50;;
69161;SDS011;56269;51.738;21.652;2023-05-16T10:35:48;7.18;;;3.80;;
69161;SDS011;56269;51.738;21.652;2023-05-16T10:38:16;6.55;;;4.10;;
69161;SDS011;56269;51.738;21.652;2023-05-16T10:40:44;6.70;;;3.25;;
69161;SDS011;56269;51.738;21.652;2023-05-16T10:43:12;7.25;;;3.88;;
69161;SDS011;56269;51.738;21.652;2023-05-16T10:46:12;6.70;;;4.03;;
69161;SDS011;56269;51.738;21.652;2023-05-16T10:48:39;7.93;;;4.43;;
69161;SDS011;56269;51.738;21.652;2023-05-16T10:51:32;7.38;;;4.15;;
69161;SDS011;56269;51.738;21.652;2023-05-16T10:54:09;6.70;;;4.30;;
69161;SDS011;56269;51.738;21.652;2023-05-16T10:56:40;6.15;;;3.30;;
69161;SDS011;56269;51.738;21.652;2023-05-16T10:59:28;6.70;;;4.23;;
69161;SDS011;56269;51.738;21.652;2023-05-16T11:01:54;6.85;;;4.03;;
69161;SDS011;56269;51.738;21.652;2023-05-16T11:04:20;6.75;;;4.25;;
69161;SDS011;56269;51.738;21.652;2023-05-16T11:06:51;6.90;;;3.40;;
69161;SDS011;56269;51.738;21.652;2023-05-16T11:09:21;7.10;;;3.80;;
69161;SDS011;56269;51.738;21.652;2023-05-16T11:14:18;10.13;;;4.25;;
69161;SDS011;56269;51.738;21.652;2023-05-16T11:19:43;7.32;;;3.97;;
69161;SDS011;56269;51.738;21.652;2023-05-16T11:22:20;7.60;;;4.78;;
69161;SDS011;56269;51.738;21.652;2023-05-16T11:32:42;7.30;;;4.28;;
69161;SDS011;56269;51.738;21.652;2023-05-16T11:35:10;9.70;;;4.40;;
69161;SDS011;56269;51.738;21.652;2023-05-16T11:37:37;7.63;;;4.10;;
69161;SDS011;56269;51.738;21.652;2023-05-16T11:40:04;7.38;;;4.60;;
69161;SDS011;56269;51.738;21.652;2023-05-16T11:42:37;7.90;;;4.40;;
69161;SDS011;56269;51.738;21.652;2023-05-16T11:45:05;8.00;;;4.00;;
69161;SDS011;56269;51.738;21.652;2023-05-16T11:47:32;7.15;;;3.65;;
69161;SDS011;56269;51.738;21.652;2023-05-16T11:50:02;7.53;;;3.87;;
69161;SDS011;56269;51.738;21.652;2023-05-16T11:52:32;8.40;;;4.82;;
69161;SDS011;56269;51.738;21.652;2023-05-16T11:54:58;9.20;;;5.95;;
69161;SDS011;56269;51.738;21.652;2023-05-16T11:57:26;8.70;;;4.88;;
69161;SDS011;56269;51.738;21.652;2023-05-16T11:59:52;8.05;;;4.30;;
69161;SDS011;56269;51.738;21.652;2023-05-16T12:02:19;8.60;;;5.70;;
69161;SDS011;56269;51.738;21.652;2023-05-16T12:04:46;7.50;;;4.32;;
69161;SDS011;56269;51.738;21.652;2023-05-16T12:07:15;6.90;;;3.63;;
69161;SDS011;56269;51.738;21.652;2023-05-16T12:09:41;7.68;;;4.20;;
69161;SDS011;56269;51.738;21.652;2023-05-16T12:12:07;8.77;;;5.10;;
69161;SDS011;56269;51.738;21.652;2023-05-16T12:14:34;8.57;;;5.10;;
69161;SDS011;56269;51.738;21.652;2023-05-16T12:17:00;8.75;;;5.40;;
69161;SDS011;56269;51.738;21.652;2023-05-16T12:19:28;7.80;;;4.80;;
69161;SDS011;56269;51.738;21.652;2023-05-16T12:21:55;8.55;;;5.38;;
69161;SDS011;56269;51.738;21.652;2023-05-16T12:24:28;8.55;;;5.15;;
69161;SDS011;56269;51.738;21.652;2023-05-16T12:26:54;7.73;;;4.83;;
69161;SDS011;56269;51.738;21.652;2023-05-16T12:29:21;8.70;;;4.50;;
69161;SDS011;56269;51.738;21.652;2023-05-16T12:31:51;7.93;;;4.82;;
69161;SDS011;56269;51.738;21.652;2023-05-16T12:34:19;7.40;;;3.95;;
69161;SDS011;56269;51.738;21.652;2023-05-16T12:36:49;8.00;;;4.80;;
69161;SDS011;56269;51.738;21.652;2023-05-16T12:39:16;7.27;;;4.37;;
69161;SDS011;56269;51.738;21.652;2023-05-16T12:41:43;6.90;;;3.67;;
69161;SDS011;56269;51.738;21.652;2023-05-16T12:44:12;6.72;;;3.15;;
69161;SDS011;56269;51.738;21.652;2023-05-16T12:46:44;8.02;;;5.28;;
69161;SDS011;56269;51.738;21.652;2023-05-16T12:49:13;8.52;;;5.10;;
69161;SDS011;56269;51.738;21.652;2023-05-16T12:51:39;7.27;;;4.07;;
69161;SDS011;56269;51.738;21.652;2023-05-16T12:54:12;6.43;;;3.17;;
69161;SDS011;56269;51.738;21.652;2023-05-16T12:56:40;6.43;;;3.08;;
69161;SDS011;56269;51.738;21.652;2023-05-16T12:59:07;7.47;;;4.25;;
69161;SDS011;56269;51.738;21.652;2023-05-16T13:01:33;7.10;;;3.72;;
69161;SDS011;56269;51.738;21.652;2023-05-16T13:04:01;6.80;;;3.93;;
69161;SDS011;56269;51.738;21.652;2023-05-16T13:06:28;6.55;;;3.88;;
69161;SDS011;56269;51.738;21.652;2023-05-16T13:08:55;6.85;;;4.30;;
69161;SDS011;56269;51.738;21.652;2023-05-16T13:11:23;5.63;;;2.75;;
69161;SDS011;56269;51.738;21.652;2023-05-16T13:13:51;8.35;;;4.50;;
69161;SDS011;56269;51.738;21.652;2023-05-16T13:16:17;6.57;;;3.53;;
69161;SDS011;56269;51.738;21.652;2023-05-16T13:18:44;6.95;;;4.35;;
69161;SDS011;56269;51.738;21.652;2023-05-16T13:21:10;6.50;;;3.25;;
69161;SDS011;56269;51.738;21.652;2023-05-16T13:23:36;7.40;;;4.50;;
69161;SDS011;56269;51.738;21.652;2023-05-16T13:26:03;5.65;;;3.05;;
69161;SDS011;56269;51.738;21.652;2023-05-16T13:28:29;6.40;;;3.70;;
69161;SDS011;56269;51.738;21.652;2023-05-16T13:30:57;7.82;;;3.50;;
69161;SDS011;56269;51.738;21.652;2023-05-16T13:33:23;6.65;;;3.53;;
69161;SDS011;56269;51.738;21.652;2023-05-16T13:35:49;7.65;;;3.00;;
69161;SDS011;56269;51.738;21.652;2023-05-16T13:38:16;7.38;;;3.35;;
69161;SDS011;56269;51.738;21.652;2023-05-16T13:40:43;5.67;;;2.60;;
69161;SDS011;56269;51.738;21.652;2023-05-16T13:43:09;5.65;;;2.85;;
69161;SDS011;56269;51.738;21.652;2023-05-16T13:45:39;5.53;;;2.80;;
69161;SDS011;56269;51.738;21.652;2023-05-16T13:48:05;6.28;;;3.42;;
69161;SDS011;56269;51.738;21.652;2023-05-16T13:50:32;5.70;;;2.88;;
69161;SDS011;56269;51.738;21.652;2023-05-16T13:52:58;6.30;;;2.90;;
69161;SDS011;56269;51.738;21.652;2023-05-16T13:55:25;5.72;;;3.00;;
69161;SDS011;56269;51.738;21.652;2023-05-16T13:57:51;5.72;;;3.05;;
69161;SDS011;56269;51.738;21.652;2023-05-16T14:00:18;6.18;;;3.20;;
69161;SDS011;56269;51.738;21.652;2023-05-16T14:02:44;5.18;;;2.67;;
69161;SDS011;56269;51.738;21.652;2023-05-16T14:05:10;5.77;;;2.80;;
69161;SDS011;56269;51.738;21.652;2023-05-16T14:07:37;5.65;;;1.90;;
69161;SDS011;56269;51.738;21.652;2023-05-16T14:10:03;4.65;;;2.13;;
69161;SDS011;56269;51.738;21.652;2023-05-16T14:12:31;5.43;;;2.60;;
69161;SDS011;56269;51.738;21.652;2023-05-16T14:14:57;6.07;;;2.47;;
69161;SDS011;56269;51.738;21.652;2023-05-16T14:17:24;5.80;;;2.90;;
69161;SDS011;56269;51.738;21.652;2023-05-16T14:19:50;5.70;;;2.72;;
69161;SDS011;56269;51.738;21.652;2023-05-16T14:22:17;5.20;;;2.28;;
69161;SDS011;56269;51.738;21.652;2023-05-16T14:24:44;5.07;;;2.10;;
69161;SDS011;56269;51.738;21.652;2023-05-16T14:27:11;4.70;;;2.30;;
69161;SDS011;56269;51.738;21.652;2023-05-16T14:29:40;4.77;;;1.97;;
69161;SDS011;56269;51.738;21.652;2023-05-16T14:32:06;4.90;;;2.30;;
69161;SDS011;56269;51.738;21.652;2023-05-16T14:34:33;4.60;;;2.05;;
69161;SDS011;56269;51.738;21.652;2023-05-16T14:37:00;4.60;;;2.30;;
69161;SDS011;56269;51.738;21.652;2023-05-16T14:39:26;4.85;;;2.40;;
69161;SDS011;56269;51.738;21.652;2023-05-16T14:41:52;4.57;;;2.07;;
69161;SDS011;56269;51.738;21.652;2023-05-16T14:44:19;4.10;;;1.70;;
69161;SDS011;56269;51.738;21.652;2023-05-16T14:46:46;4.40;;;1.40;;
69161;SDS011;56269;51.738;21.652;2023-05-16T14:49:12;4.18;;;1.90;;
69161;SDS011;56269;51.738;21.652;2023-05-16T14:51:38;4.57;;;2.28;;
69161;SDS011;56269;51.738;21.652;2023-05-16T14:54:05;5.27;;;2.30;;
69161;SDS011;56269;51.738;21.652;2023-05-16T14:56:32;5.22;;;2.47;;
69161;SDS011;56269;51.738;21.652;2023-05-16T14:58:58;4.63;;;2.00;;
69161;SDS011;56269;51.738;21.652;2023-05-16T15:01:25;4.40;;;1.80;;
69161;SDS011;56269;51.738;21.652;2023-05-16T15:03:51;5.60;;;1.92;;